Impacts METAR Board INFO
IDs:

KDFW - Dallas-Ft Worth Intl, TX, US

Updated at: 0348 UTC 20 Feb 2018
Potential Impact None Slight Moderate High
Time19/15Z 19/16Z 19/17Z 19/18Z 19/19Z 19/20Z 19/21Z 19/22Z 19/23Z 20/00Z 20/01Z 20/02Z 20/03Z
VIS10 10 10 10 10 10 10 10 10 10 10 10 10
CIG18 22 27 33 36 55 48 65 65 200 70 36 28
CoverOVCOVCOVCOVCOVCOVCOVCOVCOVCOVCOVCOVCOVC
FltCatMVFRMVFRMVFRVFRVFRVFRVFRVFRVFRVFRVFRVFRMVFR
WX-----------------------RA--
WDir180180180190190190180170170170170170170
WSpd20 16 20 22 26 22 15 14 17 15 18 23 19
WGst-- -- 25 30 39 27 -- 22 -- 25 25 30 25
Raw hourly METARs
KDFW 191453Z 18020KT 10SM BKN018 OVC024 22/18 A2983 RMK AO2 PK WND 18027/1407 SLP094 SHRA SW T02170178 53004
KDFW 191553Z 18016KT 10SM BKN022 OVC027 23/18 A2983 RMK AO2 PK WND 18026/1455 RAB1459E09 SLP093 P0000 T02280183
KDFW 191653Z 18020G25KT 10SM BKN027 OVC034 24/18 A2983 RMK AO2 PK WND 19029/1609 RAB41E50 SLP095 P0000 T02390178
KDFW 191753Z 19022G30KT 10SM BKN033 OVC041 25/17 A2983 RMK AO2 PK WND 19030/1750 RAB09E20 SLP095 P0000 60000 T02500172 10256 20211 51002
KDFW 191853Z 19026G39KT 10SM BKN036 OVC045 25/17 A2981 RMK AO2 PK WND 18039/1846 SLP088 T02500167
KDFW 191953Z 19022G27KT 10SM FEW034 SCT043 OVC055 25/17 A2979 RMK AO2 PK WND 18037/1914 SLP080 T02500167
KDFW 192053Z 18015KT 10SM BKN048 OVC060 26/16 A2977 RMK AO2 PK WND 18030/2029 SLP074 T02560161 56020
KDFW 192153Z 17014G22KT 10SM BKN065 OVC130 26/16 A2976 RMK AO2 SLP069 T02610161
KDFW 192253Z 17017KT 10SM FEW048 OVC065 26/16 A2976 RMK AO2 SLP070 T02610161
KDFW 192353Z 17015G25KT 10SM SCT065 BKN200 OVC240 26/17 A2977 RMK AO2 PK WND 17027/2342 SLP073 T02610172 10261 20250 55001
KDFW 200053Z 17018G25KT 10SM FEW050 FEW065 OVC070 24/18 A2978 RMK AO2 PK WND 16031/0019 SLP075 T02440183
KDFW 200153Z 17023G30KT 10SM -RA BKN036 OVC044 24/17 A2979 RMK AO2 PK WND 17031/0107 RAB02E21B51 SLP079 P0000 T02390172
KDFW 200305Z 17019G25KT 10SM BKN028 BKN055 OVC160 23/17 A2980 RMK AO2 T02280167